createdAt,value
2022-10-08T00:01:12.764Z,100755.00
2022-10-08T00:03:46.723Z,100757.75
2022-10-08T00:06:26.177Z,100740.19
2022-10-08T00:09:01.041Z,100754.31
2022-10-08T00:11:36.530Z,100741.50
2022-10-08T00:14:18.065Z,100750.97
2022-10-08T00:16:45.936Z,100750.63
2022-10-08T00:19:22.227Z,100749.38
2022-10-08T00:21:53.450Z,100749.16
2022-10-08T00:24:25.828Z,100758.22
2022-10-08T00:26:53.112Z,100746.91
2022-10-08T00:29:32.014Z,100756.50
2022-10-08T00:32:11.798Z,100754.44
2022-10-08T00:35:02.605Z,100745.97
2022-10-08T00:37:29.828Z,100745.88
2022-10-08T00:40:07.218Z,100748.63
2022-10-08T00:42:34.156Z,100744.44
2022-10-08T00:45:01.496Z,100750.44
2022-10-08T00:47:33.021Z,100743.19
2022-10-08T00:50:13.852Z,100740.38
2022-10-08T00:52:52.250Z,100744.72
2022-10-08T00:55:28.536Z,100739.84
2022-10-08T00:58:04.772Z,100732.59
2022-10-08T01:00:33.477Z,100738.63
2022-10-08T01:03:07.563Z,100735.06
2022-10-08T01:06:01.666Z,100736.50
2022-10-08T01:08:39.941Z,100726.22
2022-10-08T01:11:36.606Z,100717.97
2022-10-08T01:14:24.255Z,100722.72
2022-10-08T01:17:10.706Z,100716.75
2022-10-08T01:20:17.085Z,100720.06
2022-10-08T01:23:11.408Z,100713.88
2022-10-08T01:26:11.956Z,100715.50
2022-10-08T01:28:52.631Z,100707.25
2022-10-08T01:31:26.855Z,100717.78
2022-10-08T01:34:04.171Z,100714.19
2022-10-08T01:36:40.186Z,100712.38
2022-10-08T01:39:18.591Z,100714.00
2022-10-08T01:41:56.500Z,100717.22
2022-10-08T01:44:30.627Z,100703.25
2022-10-08T01:47:07.233Z,100711.44
2022-10-08T01:49:40.593Z,100710.84
2022-10-08T01:52:14.028Z,100703.44
2022-10-08T01:54:43.395Z,100692.72
2022-10-08T01:57:11.224Z,100699.34
2022-10-08T01:59:52.691Z,100694.19
2022-10-08T02:02:24.616Z,100679.75
2022-10-08T02:04:56.053Z,100677.63
2022-10-08T02:07:34.159Z,100686.09
2022-10-08T02:10:14.062Z,100687.06
2022-10-08T02:12:46.409Z,100681.16
2022-10-08T02:15:46.042Z,100684.66
2022-10-08T02:18:18.564Z,100686.38
2022-10-08T02:20:56.699Z,100680.13
2022-10-08T02:23:31.925Z,100679.66
2022-10-08T02:25:59.578Z,100679.19
2022-10-08T02:28:43.568Z,100686.28
2022-10-08T02:31:32.111Z,100677.16
2022-10-08T02:34:21.125Z,100670.91
2022-10-08T02:36:54.207Z,100669.09
2022-10-08T02:39:21.608Z,100667.00
2022-10-08T02:41:52.384Z,100670.31
2022-10-08T02:44:20.903Z,100672.72
2022-10-08T02:46:50.746Z,100670.06
2022-10-08T02:49:24.569Z,100663.25
2022-10-08T02:52:08.380Z,100663.44
2022-10-08T02:54:48.812Z,100666.63
2022-10-08T02:57:27.722Z,100682.84
2022-10-08T02:59:54.711Z,100680.31
2022-10-08T03:02:39.707Z,100675.84
2022-10-08T03:05:13.400Z,100686.13
2022-10-08T03:07:40.191Z,100681.63
2022-10-08T03:10:07.919Z,100677.28
2022-10-08T03:12:39.914Z,100674.91
2022-10-08T03:15:11.412Z,100673.09
2022-10-08T03:17:45.098Z,100682.41
2022-10-08T03:20:12.242Z,100684.66
2022-10-08T03:22:39.195Z,100683.81
2022-10-08T03:25:06.264Z,100687.91
2022-10-08T03:27:35.360Z,100687.78
2022-10-08T03:30:03.793Z,100694.81
2022-10-08T03:32:31.080Z,100688.38
2022-10-08T03:34:57.972Z,100690.84
2022-10-08T03:37:25.064Z,100693.78
2022-10-08T03:39:52.277Z,100691.31
2022-10-08T03:42:19.142Z,100702.19
2022-10-08T03:44:45.930Z,100699.44
2022-10-08T03:47:12.930Z,100690.63
2022-10-08T03:49:41.826Z,100703.91
2022-10-08T03:52:08.793Z,100689.16
2022-10-08T03:54:38.658Z,100689.53
2022-10-08T03:57:05.546Z,100688.50
2022-10-08T03:59:32.413Z,100696.25
2022-10-08T04:01:59.445Z,100677.34
2022-10-08T04:04:26.549Z,100681.16
2022-10-08T04:06:53.595Z,100669.78
2022-10-08T04:09:20.813Z,100671.09
2022-10-08T04:11:49.151Z,100669.09
2022-10-08T04:14:18.487Z,100678.97
2022-10-08T04:16:45.434Z,100675.38
2022-10-08T04:19:13.715Z,100676.50
2022-10-08T04:21:40.584Z,100681.69
2022-10-08T04:24:09.374Z,100678.94
2022-10-08T04:26:36.209Z,100681.03
2022-10-08T04:29:03.007Z,100681.56
2022-10-08T04:31:29.902Z,100675.59
2022-10-08T04:33:57.011Z,100679.53
2022-10-08T04:36:24.908Z,100683.97
2022-10-08T04:38:51.985Z,100677.88
2022-10-08T04:41:21.865Z,100678.38
2022-10-08T04:43:48.572Z,100680.75
2022-10-08T04:46:17.441Z,100677.72
2022-10-08T04:48:49.167Z,100681.00
2022-10-08T04:51:16.953Z,100683.53
2022-10-08T04:53:44.163Z,100679.31
2022-10-08T04:56:19.897Z,100680.16
2022-10-08T04:58:47.541Z,100674.50
2022-10-08T05:01:16.387Z,100675.88
2022-10-08T05:03:45.819Z,100662.69
2022-10-08T05:06:16.732Z,100675.44
2022-10-08T05:08:44.464Z,100684.38
2022-10-08T05:11:11.302Z,100678.19
2022-10-08T05:13:38.381Z,100683.69
2022-10-08T05:16:14.315Z,100675.81
2022-10-08T05:18:42.139Z,100684.75
2022-10-08T05:21:11.751Z,100682.97
2022-10-08T05:23:38.855Z,100685.84
2022-10-08T05:26:16.062Z,100680.59
2022-10-08T05:28:44.023Z,100674.72
2022-10-08T05:31:10.911Z,100674.72
2022-10-08T05:33:37.753Z,100674.72
2022-10-08T05:36:08.689Z,100678.94
2022-10-08T05:38:35.859Z,100681.41
2022-10-08T05:41:23.700Z,100686.16
2022-10-08T05:43:51.391Z,100676.91
2022-10-08T05:46:21.009Z,100686.59
2022-10-08T05:48:56.660Z,100680.34
2022-10-08T05:51:23.856Z,100679.56
2022-10-08T05:53:52.326Z,100698.13
2022-10-08T05:56:20.738Z,100690.53
2022-10-08T05:58:50.699Z,100696.22
2022-10-08T06:01:29.628Z,100689.13
2022-10-08T06:04:07.071Z,100691.78
2022-10-08T06:06:35.910Z,100695.66
2022-10-08T06:09:02.728Z,100697.38
2022-10-08T06:11:33.792Z,100689.22
2022-10-08T06:14:01.273Z,100699.28
2022-10-08T06:16:29.530Z,100690.44
2022-10-08T06:18:56.508Z,100698.91
2022-10-08T06:21:25.026Z,100687.53
2022-10-08T06:23:57.217Z,100697.94
2022-10-08T06:26:27.369Z,100699.94
2022-10-08T06:28:56.562Z,100693.88
2022-10-08T06:31:23.329Z,100696.63
2022-10-08T06:33:50.055Z,100706.69
2022-10-08T06:36:23.775Z,100704.78
2022-10-08T06:38:58.030Z,100704.19
2022-10-08T06:41:25.958Z,100711.34
2022-10-08T06:44:08.208Z,100701.28
2022-10-08T06:46:40.817Z,100706.84
2022-10-08T06:49:12.888Z,100705.09
2022-10-08T06:51:40.081Z,100710.59
2022-10-08T06:54:10.049Z,100707.56
2022-10-08T06:56:45.286Z,100706.41
2022-10-08T06:59:12.417Z,100708.75
2022-10-08T07:01:39.536Z,100712.31
2022-10-08T07:04:11.201Z,100710.03
2022-10-08T07:06:38.200Z,100717.78
2022-10-08T07:09:07.288Z,100710.34
2022-10-08T07:11:36.456Z,100716.81
2022-10-08T07:14:03.306Z,100725.91
2022-10-08T07:16:30.686Z,100716.72
2022-10-08T07:19:00.512Z,100720.88
2022-10-08T07:21:30.521Z,100719.31
2022-10-08T07:24:02.952Z,100732.06
2022-10-08T07:26:52.436Z,100730.81
2022-10-08T07:29:25.933Z,100732.16
2022-10-08T07:31:56.988Z,100733.41
2022-10-08T07:34:23.948Z,100732.34
2022-10-08T07:36:50.738Z,100729.47
2022-10-08T07:39:20.240Z,100730.53
2022-10-08T07:41:47.571Z,100748.13
2022-10-08T07:44:15.686Z,100740.00
2022-10-08T07:46:44.622Z,100745.34
2022-10-08T07:49:16.612Z,100742.91
2022-10-08T07:59:18.546Z,100744.47
2022-10-08T08:01:48.034Z,100742.97
2022-10-08T08:15:01.378Z,100740.75
2022-10-08T08:18:44.985Z,100755.28
2022-10-08T08:21:16.533Z,100744.94
2022-10-08T08:23:45.161Z,100753.56
2022-10-08T08:48:34.202Z,100755.66
2022-10-08T08:51:01.017Z,100757.56
2022-10-08T08:53:28.068Z,100736.94
2022-10-08T08:55:57.213Z,100746.13
2022-10-08T08:58:40.685Z,100751.22
2022-10-08T09:01:17.418Z,100753.56
2022-10-08T09:03:47.490Z,100762.00
2022-10-08T09:06:17.281Z,100768.44
2022-10-08T09:08:48.644Z,100761.53
2022-10-08T09:11:17.776Z,100769.94
2022-10-08T09:13:57.149Z,100765.81
2022-10-08T09:16:25.471Z,100770.91
2022-10-08T09:18:53.121Z,100762.53
2022-10-08T09:21:20.429Z,100778.97
2022-10-08T09:23:47.539Z,100775.22
2022-10-08T09:26:22.282Z,100777.88
2022-10-08T09:28:54.467Z,100799.28
2022-10-08T09:31:26.190Z,100798.25
2022-10-08T09:34:10.488Z,100786.69
2022-10-08T09:36:42.904Z,100792.53
2022-10-08T09:39:26.759Z,100808.56
2022-10-08T09:42:09.376Z,100807.94
2022-10-08T09:44:41.787Z,100801.63
2022-10-08T09:47:17.008Z,100805.09
2022-10-08T09:49:45.004Z,100801.91
2022-10-08T09:52:26.081Z,100796.25
2022-10-08T09:54:57.315Z,100795.09
2022-10-08T09:57:24.113Z,100802.09
2022-10-08T09:59:53.971Z,100801.97
2022-10-08T10:02:35.389Z,100810.75
2022-10-08T10:05:07.796Z,100814.13
2022-10-08T10:07:43.131Z,100806.41
2022-10-08T10:10:16.945Z,100800.25
2022-10-08T10:12:46.743Z,100797.81
2022-10-08T10:15:24.737Z,100818.84
2022-10-08T10:17:56.508Z,100812.97
2022-10-08T10:20:33.498Z,100809.97
2022-10-08T10:23:12.404Z,100811.19
2022-10-08T10:25:44.791Z,100817.81
2022-10-08T10:28:16.310Z,100835.06
2022-10-08T10:30:51.326Z,100826.72
2022-10-08T10:33:21.916Z,100824.06
2022-10-08T10:35:52.813Z,100826.34
2022-10-08T10:38:28.402Z,100819.50
2022-10-08T10:41:18.093Z,100828.63
2022-10-08T10:43:51.079Z,100837.22
2022-10-08T10:46:25.489Z,100840.53
2022-10-08T10:48:52.372Z,100825.59
2022-10-08T10:51:41.273Z,100829.34
2022-10-08T10:54:13.855Z,100840.22
2022-10-08T10:56:47.785Z,100831.00
2022-10-08T10:59:38.729Z,100834.88
2022-10-08T11:02:05.323Z,100840.06
2022-10-08T11:04:52.190Z,100831.34
2022-10-08T11:07:29.948Z,100836.19
2022-10-08T11:10:05.646Z,100838.13
2022-10-08T11:12:44.342Z,100830.09
2022-10-08T11:15:30.214Z,100845.34
2022-10-08T11:18:12.669Z,100845.94
2022-10-08T11:20:52.276Z,100841.28
2022-10-08T11:23:42.291Z,100841.63
2022-10-08T11:26:22.894Z,100845.09
2022-10-08T11:29:17.245Z,100830.53
2022-10-08T11:31:48.542Z,100843.56
2022-10-08T11:34:20.688Z,100836.47
2022-10-08T11:36:53.153Z,100836.47
2022-10-08T11:39:22.134Z,100828.69
2022-10-08T11:41:57.783Z,100824.88
2022-10-08T11:44:26.827Z,100830.22
2022-10-08T11:46:53.494Z,100827.13
2022-10-08T11:49:20.128Z,100832.88
2022-10-08T11:51:50.012Z,100835.19
2022-10-08T11:54:34.840Z,100834.41
2022-10-08T11:57:13.431Z,100830.56
2022-10-08T11:59:48.972Z,100844.28
2022-10-08T12:02:28.837Z,100821.69
2022-10-08T12:04:58.047Z,100818.66
2022-10-08T12:07:34.872Z,100823.09
2022-10-08T12:10:07.725Z,100827.84
2022-10-08T12:12:49.747Z,100825.31
2022-10-08T12:15:27.818Z,100820.69
2022-10-08T12:17:58.800Z,100828.91
2022-10-08T12:20:33.375Z,100824.09
2022-10-08T12:23:07.356Z,100840.66
2022-10-08T12:25:37.205Z,100825.81
2022-10-08T12:28:30.289Z,100831.03
2022-10-08T12:30:58.639Z,100827.03
2022-10-08T12:33:26.383Z,100832.47
2022-10-08T12:36:20.324Z,100823.38
2022-10-08T12:38:51.315Z,100850.50
2022-10-08T12:41:21.698Z,100834.09
2022-10-08T12:44:07.262Z,100827.63
2022-10-08T12:46:50.521Z,100817.41
2022-10-08T12:49:28.122Z,100833.84
2022-10-08T12:52:17.052Z,100826.88
2022-10-08T12:54:49.421Z,100830.06
2022-10-08T12:57:23.878Z,100837.97
2022-10-08T12:59:50.787Z,100835.03
2022-10-08T13:02:26.140Z,100823.25
2022-10-08T13:04:52.994Z,100840.00
2022-10-08T13:07:26.345Z,100845.22
2022-10-08T13:09:58.699Z,100820.53
2022-10-08T13:12:25.796Z,100829.47
2022-10-08T13:15:21.143Z,100828.47
2022-10-08T13:17:48.049Z,100839.00
2022-10-08T13:20:18.637Z,100837.25
2022-10-08T13:22:45.424Z,100850.50
2022-10-08T13:25:31.817Z,100854.69
2022-10-08T13:28:13.974Z,100846.59
2022-10-08T13:30:42.125Z,100847.47
2022-10-08T13:33:25.166Z,100850.97
2022-10-08T13:35:54.586Z,100842.84
2022-10-08T13:38:24.076Z,100854.25
2022-10-08T13:40:58.655Z,100848.94
2022-10-08T13:43:26.370Z,100850.00
2022-10-08T13:45:53.075Z,100841.56
2022-10-08T13:48:19.854Z,100847.59
2022-10-08T13:50:50.194Z,100856.84
2022-10-08T13:53:22.265Z,100850.94
2022-10-08T13:55:50.146Z,100839.41
2022-10-08T13:58:19.173Z,100846.59
2022-10-08T14:00:46.986Z,100832.63
2022-10-08T14:03:14.192Z,100844.66
2022-10-08T14:05:43.517Z,100842.34
2022-10-08T14:08:16.990Z,100853.34
2022-10-08T14:10:44.202Z,100840.38
2022-10-08T14:13:13.139Z,100865.69
2022-10-08T14:15:39.957Z,100845.34
2022-10-08T14:18:07.008Z,100860.13
2022-10-08T14:20:34.805Z,100855.47
2022-10-08T14:23:01.701Z,100838.66
2022-10-08T14:25:31.961Z,100857.63
2022-10-08T14:28:00.915Z,100868.25
2022-10-08T14:30:28.178Z,100875.47
2022-10-08T14:32:54.983Z,100875.38
2022-10-08T14:35:22.202Z,100854.72
2022-10-08T14:37:49.252Z,100869.53
2022-10-08T14:40:20.279Z,100855.34
2022-10-08T14:42:47.685Z,100859.97
2022-10-08T14:45:15.034Z,100863.00
2022-10-08T14:47:42.400Z,100865.94
2022-10-08T14:50:09.518Z,100871.53
2022-10-08T14:52:43.220Z,100869.09
2022-10-08T14:55:11.141Z,100872.63
2022-10-08T14:57:37.879Z,100871.41
2022-10-08T15:00:05.625Z,100880.41
2022-10-08T15:02:34.511Z,100876.78
2022-10-08T15:05:01.846Z,100876.53
2022-10-08T15:07:28.825Z,100885.91
2022-10-08T15:09:55.511Z,100887.09
2022-10-08T15:12:22.286Z,100876.34
2022-10-08T15:14:49.193Z,100886.25
2022-10-08T15:17:15.890Z,100882.75
2022-10-08T15:19:42.580Z,100905.13
2022-10-08T15:22:09.280Z,100900.00
2022-10-08T15:24:36.038Z,100898.66
2022-10-08T15:27:02.751Z,100918.28
2022-10-08T15:29:29.573Z,100947.56
2022-10-08T15:31:56.490Z,100927.25
2022-10-08T15:34:23.246Z,100924.13
2022-10-08T15:36:49.990Z,100961.00
2022-10-08T15:39:18.320Z,100954.53
2022-10-08T15:41:47.341Z,100949.66
2022-10-08T15:44:22.602Z,100956.19
2022-10-08T15:46:53.089Z,100962.09
2022-10-08T15:49:21.833Z,100969.41
2022-10-08T15:51:48.518Z,100959.72
2022-10-08T15:54:15.185Z,100965.53
2022-10-08T15:56:41.946Z,100980.06
2022-10-08T15:59:08.636Z,100984.22
2022-10-08T16:01:35.447Z,100977.63
2022-10-08T16:04:02.358Z,100996.72
2022-10-08T16:06:32.721Z,100990.19
2022-10-08T16:08:59.909Z,101005.78
2022-10-08T16:11:33.895Z,101000.06
2022-10-08T16:14:03.469Z,100996.88
2022-10-08T16:16:30.637Z,100998.13
2022-10-08T16:19:02.270Z,100995.56
2022-10-08T16:21:30.571Z,101016.09
2022-10-08T16:23:58.164Z,101017.75
2022-10-08T16:26:25.429Z,101015.00
2022-10-08T16:28:57.026Z,101016.44
2022-10-08T16:31:25.706Z,101023.56
2022-10-08T16:34:00.022Z,101026.81
2022-10-08T16:36:28.315Z,101024.06
2022-10-08T16:38:55.528Z,101028.09
2022-10-08T16:41:24.969Z,101040.53
2022-10-08T16:43:52.834Z,101047.31
2022-10-08T16:46:22.176Z,101048.53
2022-10-08T16:49:06.553Z,101052.25
2022-10-08T16:51:36.383Z,101050.69
2022-10-08T16:54:05.752Z,101049.13
2022-10-08T16:56:35.970Z,101052.47
2022-10-08T16:59:07.269Z,101054.66
2022-10-08T17:01:35.225Z,101062.50
2022-10-08T17:04:02.146Z,101067.84
2022-10-08T17:06:29.292Z,101066.97
2022-10-08T17:08:56.063Z,101085.72
2022-10-08T17:11:22.813Z,101096.75
2022-10-08T17:13:51.911Z,101100.00
2022-10-08T17:16:20.678Z,101110.47
2022-10-08T17:18:50.549Z,101097.25
2022-10-08T17:21:17.549Z,101098.66
2022-10-08T17:23:44.306Z,101108.66
2022-10-08T17:26:13.518Z,101112.84
2022-10-08T17:28:42.434Z,101126.59
2022-10-08T17:31:12.937Z,101121.59
2022-10-08T17:33:40.927Z,101122.84
2022-10-08T17:36:10.149Z,101133.16
2022-10-08T17:38:37.480Z,101142.00
2022-10-08T17:41:15.450Z,101128.97
2022-10-08T17:43:42.996Z,101145.34
2022-10-08T17:46:15.581Z,101146.25
2022-10-08T17:48:42.991Z,101149.25
2022-10-08T17:51:13.315Z,101154.97
2022-10-08T17:53:40.156Z,101157.25
2022-10-08T17:56:09.529Z,101160.84
2022-10-08T17:58:36.387Z,101160.31
2022-10-08T18:01:22.328Z,101162.72
2022-10-08T18:04:00.042Z,101162.22
2022-10-08T18:06:27.343Z,101174.06
2022-10-08T18:08:58.619Z,101172.66
2022-10-08T18:11:26.115Z,101184.88
2022-10-08T18:13:53.297Z,101175.97
2022-10-08T18:16:21.151Z,101178.81
2022-10-08T18:18:48.705Z,101174.25
2022-10-08T18:21:17.610Z,101188.75
2022-10-08T18:23:46.694Z,101183.34
2022-10-08T18:26:20.256Z,101187.66
2022-10-08T18:28:48.904Z,101185.91
2022-10-08T18:31:16.362Z,101187.13
2022-10-08T18:33:45.141Z,101192.38
2022-10-08T18:36:14.573Z,101198.88
2022-10-08T18:38:43.041Z,101210.72
2022-10-08T18:41:14.676Z,101213.44
2022-10-08T18:43:41.665Z,101213.91
2022-10-08T18:46:08.999Z,101219.78
2022-10-08T18:48:36.075Z,101220.38
2022-10-08T18:51:04.986Z,101226.59
2022-10-08T18:53:33.626Z,101232.16
2022-10-08T18:56:00.710Z,101232.91
2022-10-08T18:58:27.837Z,101239.19
2022-10-08T19:00:55.827Z,101243.88
2022-10-08T19:03:24.478Z,101249.38
2022-10-08T19:05:52.114Z,101240.94
2022-10-08T19:08:19.029Z,101248.91
2022-10-08T19:10:45.848Z,101241.84
2022-10-08T19:13:12.685Z,101249.28
2022-10-08T19:15:39.792Z,101257.44
2022-10-08T19:18:07.633Z,101254.47
2022-10-08T19:20:35.461Z,101260.03
2022-10-08T19:23:04.942Z,101268.25
2022-10-08T19:28:20.510Z,101262.53
2022-10-08T19:30:50.613Z,101275.63
2022-10-08T19:33:17.620Z,101281.75
2022-10-08T19:35:47.120Z,101277.84
2022-10-08T19:38:23.722Z,101284.44
2022-10-08T19:40:53.274Z,101287.69
2022-10-08T19:43:20.199Z,101291.31
2022-10-08T19:45:47.334Z,101295.28
2022-10-08T19:48:14.097Z,101297.41
2022-10-08T19:50:41.991Z,101300.53
2022-10-08T19:53:09.845Z,101294.88
2022-10-08T19:55:38.375Z,101307.03
2022-10-08T19:58:05.159Z,101310.53
2022-10-08T20:00:31.978Z,101307.69
2022-10-08T20:02:58.882Z,101313.09
2022-10-08T20:05:25.964Z,101318.28
2022-10-08T20:07:52.706Z,101326.06
2022-10-08T20:10:19.509Z,101322.16
2022-10-08T20:12:47.046Z,101323.16
2022-10-08T20:15:14.354Z,101324.25
2022-10-08T20:17:41.155Z,101333.78
2022-10-08T20:20:28.134Z,101335.03
2022-10-08T20:22:55.225Z,101336.13
2022-10-08T20:25:22.206Z,101345.13
2022-10-08T20:27:49.219Z,101346.88
2022-10-08T20:30:16.133Z,101343.84
2022-10-08T20:32:42.967Z,101346.44
2022-10-08T20:35:10.040Z,101344.88
2022-10-08T20:37:36.866Z,101353.91
2022-10-08T20:40:06.610Z,101356.22
2022-10-08T20:42:33.750Z,101350.63
2022-10-08T20:45:00.587Z,101358.28
2022-10-08T20:47:27.361Z,101359.97
2022-10-08T20:49:54.163Z,101359.84
2022-10-08T20:52:21.018Z,101375.13
2022-10-08T20:54:47.809Z,101379.75
2022-10-08T20:57:14.658Z,101374.66
2022-10-08T20:59:41.525Z,101380.59
2022-10-08T21:02:10.388Z,101371.72
2022-10-08T21:04:37.736Z,101378.03
2022-10-08T21:07:08.912Z,101383.22
2022-10-08T21:09:35.844Z,101389.25
2022-10-08T21:12:03.038Z,101387.31
2022-10-08T21:14:32.057Z,101393.75
2022-10-08T21:17:08.682Z,101399.28
2022-10-08T21:19:35.572Z,101400.41
2022-10-08T21:22:02.336Z,101406.59
2022-10-08T21:24:29.226Z,101401.72
2022-10-08T21:26:56.653Z,101406.97
2022-10-08T21:29:23.629Z,101402.00
2022-10-08T21:31:50.470Z,101408.03
2022-10-08T21:34:17.421Z,101413.41
2022-10-08T21:36:44.859Z,101416.22
2022-10-08T21:39:15.949Z,101416.50
2022-10-08T21:41:43.587Z,101423.47
2022-10-08T21:44:10.560Z,101418.50
2022-10-08T21:46:41.899Z,101429.06
2022-10-08T21:49:12.459Z,101423.91
2022-10-08T21:51:39.287Z,101424.97
2022-10-08T21:54:11.953Z,101429.19
2022-10-08T21:56:39.873Z,101417.47
2022-10-08T21:59:08.767Z,101424.50
2022-10-08T22:01:39.515Z,101435.09
2022-10-08T22:04:17.009Z,101432.75
2022-10-08T22:06:46.502Z,101434.19
2022-10-08T22:09:16.207Z,101442.56
2022-10-08T22:11:43.046Z,101435.84
2022-10-08T22:14:10.049Z,101443.91
2022-10-08T22:16:37.434Z,101437.19
2022-10-08T22:19:04.868Z,101443.28
2022-10-08T22:21:31.819Z,101448.94
2022-10-08T22:23:58.628Z,101437.38
2022-10-08T22:26:34.040Z,101448.13
2022-10-08T22:29:01.296Z,101452.19
2022-10-08T22:31:28.586Z,101449.72
2022-10-08T22:33:55.544Z,101461.13
2022-10-08T22:36:25.090Z,101464.13
2022-10-08T22:38:52.691Z,101455.38
2022-10-08T22:41:24.097Z,101458.00
2022-10-08T22:43:50.982Z,101459.69
2022-10-08T22:46:21.820Z,101458.03
2022-10-08T22:48:48.560Z,101458.88
2022-10-08T22:51:18.182Z,101463.78
2022-10-08T22:53:45.298Z,101466.44
2022-10-08T22:56:15.495Z,101460.53
2022-10-08T22:58:42.290Z,101468.56
2022-10-08T23:01:11.562Z,101468.72
2022-10-08T23:03:38.946Z,101464.25
2022-10-08T23:06:20.083Z,101480.31
2022-10-08T23:08:48.559Z,101468.50
2022-10-08T23:11:16.674Z,101468.81
2022-10-08T23:13:46.978Z,101484.34
2022-10-08T23:16:15.277Z,101477.13
2022-10-08T23:18:46.540Z,101481.56
2022-10-08T23:21:16.021Z,101478.31
2022-10-08T23:23:44.344Z,101482.53
2022-10-08T23:26:13.603Z,101485.72
2022-10-08T23:28:40.665Z,101481.94
2022-10-08T23:31:19.047Z,101484.97
2022-10-08T23:33:47.775Z,101486.84
2022-10-08T23:36:17.706Z,101488.22
2022-10-08T23:38:44.603Z,101488.22
2022-10-08T23:41:12.397Z,101492.19
2022-10-08T23:43:41.741Z,101505.56
2022-10-08T23:46:10.055Z,101496.47
2022-10-08T23:48:36.882Z,101503.44
2022-10-08T23:51:04.379Z,101506.47
2022-10-08T23:53:31.678Z,101508.97
2022-10-08T23:55:58.539Z,101511.84
2022-10-08T23:58:25.829Z,101505.63
